Terminal Aerodrome Forecast
Issued by NWS

Home | Current Version | Previous Version | Text Only | Print | Product List | Glossary Off
Versions: 1 2 3 4 5 6 7 8 9 10 11 12 13

000
FTUS44 KTSA 310500
TAFMLC
TAF
KMLC 310520Z 3106/0106 35009KT P6SM SKC
     FM311200 36011KT P6SM SCT020
     FM311700 01014G21KT P6SM SKC
     FM010000 02004KT P6SM SKC=

USA.gov is the U.S. government's official web portal to all federal, state and local government web resources and services.